Time;durP1;ratioP1;P1;durP2;ratioP2;P2;SDS_P1;SDS_P2;PMS_P1;PMS_P2;Temp;Humidity;BMP_temperature;BMP_pressure;BME280_temperature;BME280_humidity;BME280_pressure;Samples;Min_cycle;Max_cycle;Signal;HPM_P1;HPM_P2
2022/07/15 00:01:12;;;;;;;11.98;5.18;;;21.30;99.90;;;;;;5011645;28;20026;-82
2022/07/15 00:03:38;;;;;;;6.93;2.58;;;21.30;99.90;;;;;;5011265;28;20515;-81
2022/07/15 00:06:03;;;;;;;11.90;5.00;;;21.40;99.90;;;;;;5010617;28;20033;-82
2022/07/15 00:08:29;;;;;;;5.93;2.72;;;21.30;99.90;;;;;;5010832;28;20025;-83
2022/07/15 00:10:55;;;;;;;13.30;3.08;;;21.20;99.90;;;;;;5011066;28;20409;-81
2022/07/15 00:13:23;;;;;;;9.13;2.78;;;21.10;99.90;;;;;;5011627;28;20022;-84
2022/07/15 00:15:49;;;;;;;12.18;3.63;;;21.00;99.90;;;;;;5011130;28;20022;-85
2022/07/15 00:18:15;;;;;;;19.42;4.43;;;21.00;99.90;;;;;;5010909;28;20057;-85
2022/07/15 00:20:43;;;;;;;11.93;4.32;;;20.80;99.90;;;;;;5011201;28;20022;-85
2022/07/15 00:23:08;;;;;;;8.45;3.95;;;20.60;99.90;;;;;;5009566;28;20037;-84
2022/07/15 00:25:34;;;;;;;9.63;3.97;;;20.60;99.90;;;;;;5011193;28;20030;-84
2022/07/15 00:28:04;;;;;;;11.15;4.43;;;20.50;99.90;;;;;;5026171;28;20026;-84
2022/07/15 00:30:36;;;;;;;10.95;4.50;;;20.40;99.90;;;;;;5011083;28;20018;-84
2022/07/15 00:33:02;;;;;;;12.52;4.45;;;20.30;99.90;;;;;;5011241;28;20153;-84
2022/07/15 00:35:29;;;;;;;8.85;4.47;;;20.10;99.90;;;;;;5011202;28;20100;-83
2022/07/15 00:37:55;;;;;;;14.73;4.45;;;20.00;99.90;;;;;;5009530;28;20044;-85
2022/07/15 00:40:21;;;;;;;7.57;4.63;;;19.80;99.90;;;;;;5011131;28;20037;-84
2022/07/15 00:42:47;;;;;;;9.15;4.13;;;19.70;99.90;;;;;;5009458;28;20106;-84
2022/07/15 00:45:15;;;;;;;9.73;4.60;;;19.80;99.90;;;;;;5009776;28;20026;-84
2022/07/15 00:47:43;;;;;;;9.23;4.85;;;19.80;99.90;;;;;;5010455;28;20045;-84
2022/07/15 00:50:09;;;;;;;18.58;4.00;;;19.60;99.90;;;;;;5009872;28;20362;-85
2022/07/15 00:52:43;;;;;;;12.30;4.20;;;19.50;99.90;;;;;;5010451;28;20302;-85
2022/07/15 00:55:13;;;;;;;7.43;4.03;;;19.60;99.90;;;;;;5010715;28;20069;-84
2022/07/15 00:57:43;;;;;;;15.52;4.07;;;19.50;99.90;;;;;;5009000;28;20028;-85
2022/07/15 01:00:11;;;;;;;8.18;4.90;;;19.40;99.90;;;;;;5009837;28;20032;-85
2022/07/15 01:02:43;;;;;;;10.07;5.03;;;19.30;99.90;;;;;;5009259;28;20149;-84
2022/07/15 01:05:10;;;;;;;10.15;5.00;;;19.30;99.90;;;;;;5009917;28;20033;-84
2022/07/15 01:07:36;;;;;;;8.32;5.78;;;19.00;99.90;;;;;;5024608;28;20237;-85
2022/07/15 01:10:02;;;;;;;8.32;5.00;;;19.00;99.90;;;;;;5009093;28;20057;-83
2022/07/15 01:12:28;;;;;;;19.67;4.57;;;19.00;99.90;;;;;;5009538;28;20028;-83
2022/07/15 01:14:55;;;;;;;13.85;4.93;;;19.00;99.90;;;;;;5009403;28;20026;-83
2022/07/15 01:17:20;;;;;;;6.75;4.53;;;18.90;99.90;;;;;;5009373;28;20018;-84
2022/07/15 01:19:46;;;;;;;7.40;4.97;;;18.80;99.90;;;;;;5009891;28;20034;-83
2022/07/15 01:22:12;;;;;;;6.95;4.90;;;18.80;99.90;;;;;;5010997;28;20500;-83
2022/07/15 01:24:37;;;;;;;9.07;5.50;;;18.50;99.90;;;;;;5010603;28;20049;-84
2022/07/15 01:27:03;;;;;;;8.38;5.18;;;18.50;99.90;;;;;;5008967;28;20028;-84
2022/07/15 01:29:29;;;;;;;6.68;4.65;;;18.30;99.90;;;;;;5012609;28;20022;-83
2022/07/15 01:31:55;;;;;;;6.00;4.47;;;18.40;99.90;;;;;;5014478;28;20362;-83
2022/07/15 01:34:21;;;;;;;8.88;4.88;;;18.40;99.90;;;;;;5014328;28;20028;-83
2022/07/15 01:36:47;;;;;;;9.02;5.57;;;18.30;99.90;;;;;;5013154;28;20057;-84
2022/07/15 01:39:13;;;;;;;7.97;5.32;;;18.20;99.90;;;;;;5014006;28;20029;-83
2022/07/15 01:41:38;;;;;;;6.82;4.57;;;18.20;99.90;;;;;;5013944;28;20432;-84
2022/07/15 01:44:04;;;;;;;11.18;5.25;;;18.20;99.90;;;;;;5013614;28;20022;-83
2022/07/15 01:46:30;;;;;;;6.50;5.82;;;18.10;99.90;;;;;;5014096;28;20034;-83
2022/07/15 01:51:40;;;;;;;6.50;4.88;;;18.10;99.90;;;;;;5014010;28;20493;-83
2022/07/15 01:54:06;;;;;;;6.78;4.82;;;18.10;99.90;;;;;;5013916;28;20022;-85
2022/07/15 01:56:32;;;;;;;8.30;5.75;;;18.20;99.90;;;;;;5013073;28;20454;-84
2022/07/15 01:58:58;;;;;;;6.70;4.72;;;18.20;99.90;;;;;;5013816;28;20092;-83
2022/07/15 02:01:24;;;;;;;9.60;5.78;;;18.10;99.90;;;;;;5012706;28;20030;-83
2022/07/15 02:03:50;;;;;;;8.52;5.90;;;18.10;99.90;;;;;;5013827;28;20025;-84
2022/07/15 02:06:16;;;;;;;8.52;4.90;;;18.10;99.90;;;;;;5013687;28;20470;-83
2022/07/15 02:08:42;;;;;;;11.38;6.88;;;18.00;99.90;;;;;;5012334;28;20477;-84
2022/07/15 02:11:08;;;;;;;8.30;6.40;;;18.00;99.90;;;;;;5012267;28;20065;-84
2022/07/15 02:13:33;;;;;;;12.45;7.00;;;17.90;99.90;;;;;;5013615;28;20026;-85
2022/07/15 02:15:59;;;;;;;9.45;6.80;;;17.90;99.90;;;;;;5013566;28;20046;-84
2022/07/15 02:18:25;;;;;;;11.50;7.45;;;17.90;99.90;;;;;;5013705;28;20026;-84
2022/07/15 02:20:50;;;;;;;10.05;6.35;;;17.90;99.90;;;;;;5013340;28;20022;-85
2022/07/15 02:23:16;;;;;;;7.93;6.80;;;17.80;99.90;;;;;;5013544;28;20029;-85
2022/07/15 02:25:42;;;;;;;12.95;6.40;;;17.80;99.90;;;;;;5013436;28;20048;-83
2022/07/15 02:28:08;;;;;;;13.93;6.60;;;17.80;99.90;;;;;;5013442;28;20030;-84
2022/07/15 02:30:38;;;;;;;9.98;5.70;;;17.80;99.90;;;;;;5013182;28;20117;-84
2022/07/15 02:33:05;;;;;;;7.30;5.97;;;17.80;99.90;;;;;;5011974;28;20355;-84
2022/07/15 02:35:31;;;;;;;7.18;6.47;;;17.80;99.90;;;;;;5013289;28;20025;-84
2022/07/15 02:37:57;;;;;;;6.40;5.85;;;17.80;99.90;;;;;;5012983;28;20380;-85
2022/07/15 02:40:23;;;;;;;8.80;6.78;;;17.70;99.90;;;;;;5013075;28;20087;-84
2022/07/15 02:43:03;;;;;;;10.50;6.40;;;17.70;99.90;;;;;;5012916;28;20034;-85
2022/07/15 02:45:33;;;;;;;9.80;6.55;;;17.80;99.90;;;;;;5012098;28;20049;-84
2022/07/15 02:47:59;;;;;;;7.63;6.63;;;17.80;99.90;;;;;;5011721;28;20501;-84
2022/07/15 02:50:24;;;;;;;8.35;6.13;;;17.70;99.90;;;;;;5013180;28;20045;-82
2022/07/15 02:52:50;;;;;;;9.70;6.43;;;17.60;99.90;;;;;;5013015;28;20432;-83
2022/07/15 02:55:16;;;;;;;10.75;6.13;;;17.50;99.90;;;;;;5011808;28;20025;-83
2022/07/15 02:57:42;;;;;;;9.80;6.97;;;17.40;99.90;;;;;;5014284;28;20054;-83
2022/07/15 03:00:14;;;;;;;11.82;7.13;;;17.30;99.90;;;;;;5030283;28;20082;-85
2022/07/15 03:02:40;;;;;;;12.35;7.07;;;17.20;99.90;;;;;;5033015;28;20018;-85
2022/07/15 03:05:06;;;;;;;11.13;6.90;;;17.20;99.90;;;;;;5033029;28;20033;-84
2022/07/15 03:07:32;;;;;;;10.77;6.95;;;17.20;99.90;;;;;;5036606;28;20030;-85
2022/07/15 03:09:58;;;;;;;16.48;7.32;;;17.20;99.90;;;;;;5038299;28;20105;-84
2022/07/15 03:12:24;;;;;;;11.75;7.75;;;17.20;99.90;;;;;;5038214;28;20034;-84
2022/07/15 03:14:50;;;;;;;9.40;6.72;;;17.20;99.90;;;;;;5038023;28;20032;-85
2022/07/15 03:17:16;;;;;;;15.38;7.30;;;17.20;99.90;;;;;;5035740;28;20041;-84
2022/07/15 03:19:42;;;;;;;10.55;7.07;;;17.30;99.90;;;;;;5012891;28;20051;-83
2022/07/15 03:22:08;;;;;;;9.98;7.38;;;17.30;99.90;;;;;;5011550;28;20076;-84
2022/07/15 03:24:33;;;;;;;14.82;7.22;;;17.30;99.90;;;;;;5012444;28;20022;-83
2022/07/15 03:26:59;;;;;;;8.65;7.43;;;17.40;99.90;;;;;;5012229;28;20103;-84
2022/07/15 03:29:26;;;;;;;7.85;7.05;;;17.40;99.90;;;;;;5012242;28;20029;-84
2022/07/15 03:31:53;;;;;;;11.90;7.45;;;17.40;99.90;;;;;;5012392;28;20025;-84
2022/07/15 03:34:19;;;;;;;13.48;7.47;;;17.50;99.90;;;;;;5012505;28;20022;-83
2022/07/15 03:36:44;;;;;;;15.88;7.32;;;17.40;99.90;;;;;;5012134;28;20030;-83
2022/07/15 03:39:10;;;;;;;13.55;8.70;;;17.40;99.90;;;;;;5010702;28;20164;-83
2022/07/15 03:41:36;;;;;;;18.60;8.75;;;17.30;99.90;;;;;;5012137;28;20026;-83
2022/07/15 03:44:02;;;;;;;8.95;7.57;;;17.30;99.90;;;;;;5011153;28;20029;-83
2022/07/15 03:46:29;;;;;;;13.45;8.40;;;17.30;99.90;;;;;;5010519;28;20022;-84
2022/07/15 03:48:56;;;;;;;10.60;8.35;;;17.30;99.90;;;;;;5010287;28;20515;-84
2022/07/15 03:51:24;;;;;;;9.13;6.85;;;17.30;99.90;;;;;;5011312;28;20326;-84
2022/07/15 03:53:51;;;;;;;9.32;7.55;;;17.40;99.90;;;;;;5011606;28;20072;-83
2022/07/15 03:56:16;;;;;;;10.27;7.28;;;17.40;99.90;;;;;;5011846;28;20113;-84
2022/07/15 03:58:44;;;;;;;10.18;6.47;;;17.50;99.90;;;;;;5011108;28;20108;-83
2022/07/15 04:01:10;;;;;;;8.52;7.15;;;17.50;99.90;;;;;;5011685;28;20049;-84
2022/07/15 04:03:36;;;;;;;8.90;7.25;;;17.50;99.90;;;;;;5009688;28;20076;-83
2022/07/15 04:06:02;;;;;;;9.07;7.03;;;17.50;99.90;;;;;;5011469;28;20073;-84
2022/07/15 04:08:28;;;;;;;13.55;8.48;;;17.50;99.90;;;;;;5011388;28;20116;-84
2022/07/15 04:10:55;;;;;;;10.80;7.13;;;17.50;99.90;;;;;;5026416;28;20114;-84
2022/07/15 04:13:21;;;;;;;10.35;7.47;;;17.50;99.90;;;;;;5011089;28;20560;-84
2022/07/15 04:15:46;;;;;;;12.30;7.38;;;17.50;99.90;;;;;;5010964;28;20100;-84
2022/07/15 04:18:17;;;;;;;12.05;7.20;;;17.50;99.90;;;;;;5027111;28;20028;-83
2022/07/15 04:20:43;;;;;;;8.25;6.88;;;17.40;99.90;;;;;;5012491;28;20081;-83
2022/07/15 04:23:12;;;;;;;12.88;6.85;;;17.30;99.90;;;;;;5019341;28;20030;-84
2022/07/15 04:25:37;;;;;;;7.30;6.00;;;17.30;99.90;;;;;;5012810;28;20068;-83
2022/07/15 04:28:03;;;;;;;8.82;6.78;;;17.30;99.90;;;;;;5015199;28;20026;-83
2022/07/15 04:30:29;;;;;;;11.13;7.95;;;17.20;99.90;;;;;;5011016;28;20026;-84
2022/07/15 04:32:55;;;;;;;12.13;6.90;;;17.10;99.90;;;;;;5012438;28;20056;-84
2022/07/15 04:35:20;;;;;;;8.90;6.50;;;17.20;99.90;;;;;;5012187;28;20022;-83
2022/07/15 04:37:46;;;;;;;7.65;6.00;;;17.30;99.90;;;;;;5012976;28;20033;-84
2022/07/15 04:40:12;;;;;;;8.10;6.75;;;17.40;99.90;;;;;;5013358;28;20472;-84
2022/07/15 04:42:38;;;;;;;13.52;7.60;;;17.30;99.90;;;;;;5010851;28;20025;-83
2022/07/15 04:45:04;;;;;;;9.73;6.50;;;17.30;99.90;;;;;;5015138;28;20026;-83
2022/07/15 04:47:30;;;;;;;9.45;6.82;;;17.30;99.90;;;;;;5013893;28;20505;-83
2022/07/15 04:52:47;;;;;;;8.32;6.60;;;17.30;99.90;;;;;;5031439;28;20064;-57
2022/07/15 04:55:14;;;;;;;10.18;6.03;;;17.40;99.90;;;;;;5031621;28;20079;-54
2022/07/15 04:57:41;;;;;;;11.38;6.47;;;17.40;99.90;;;;;;5030804;28;20099;-54
2022/07/15 05:00:08;;;;;;;8.55;6.20;;;17.50;99.90;;;;;;5031462;28;20029;-55
2022/07/15 05:02:34;;;;;;;16.55;7.30;;;17.60;99.90;;;;;;5030926;28;20021;-53
2022/07/15 05:05:00;;;;;;;7.93;6.38;;;17.50;99.90;;;;;;5034202;28;20018;-57
2022/07/15 05:07:28;;;;;;;10.68;6.72;;;17.60;99.90;;;;;;5035244;28;20025;-58
2022/07/15 05:09:54;;;;;;;8.80;6.78;;;17.60;99.90;;;;;;5034817;28;20041;-57
2022/07/15 05:12:20;;;;;;;15.18;6.68;;;17.70;99.90;;;;;;5033487;28;20123;-57
2022/07/15 05:14:46;;;;;;;8.02;6.63;;;17.70;99.90;;;;;;5032563;28;20030;-56
2022/07/15 05:17:12;;;;;;;8.25;6.13;;;17.80;99.90;;;;;;5033591;28;20075;-55
2022/07/15 05:19:38;;;;;;;8.40;6.18;;;17.90;99.90;;;;;;5033687;28;20100;-58
2022/07/15 05:22:03;;;;;;;11.25;6.65;;;17.90;99.90;;;;;;5033526;28;20023;-54
2022/07/15 05:24:29;;;;;;;13.18;6.32;;;17.90;99.90;;;;;;5033186;28;20079;-57
2022/07/15 05:26:55;;;;;;;9.93;5.80;;;18.00;99.90;;;;;;5033665;28;20044;-56
2022/07/15 05:29:24;;;;;;;7.55;5.68;;;18.10;99.90;;;;;;5033149;28;20392;-58
2022/07/15 05:31:50;;;;;;;11.23;6.03;;;18.10;99.90;;;;;;5033395;28;20032;-55
2022/07/15 05:34:31;;;;;;;7.15;6.38;;;18.20;99.90;;;;;;5032445;28;20079;-58
2022/07/15 05:36:57;;;;;;;9.73;6.30;;;18.30;99.90;;;;;;5033128;28;20116;-54
2022/07/15 05:39:23;;;;;;;10.73;6.20;;;18.30;99.90;;;;;;5034034;28;20029;-57
2022/07/15 05:41:49;;;;;;;9.30;6.35;;;18.30;99.90;;;;;;5034591;28;20030;-56
2022/07/15 05:44:15;;;;;;;9.50;5.90;;;18.30;99.90;;;;;;5034626;28;20416;-54
2022/07/15 05:46:41;;;;;;;9.40;6.60;;;18.30;99.90;;;;;;5034274;28;20017;-57
2022/07/15 05:49:06;;;;;;;12.00;7.40;;;18.30;99.90;;;;;;5034185;28;20732;-55
2022/07/15 05:51:33;;;;;;;11.95;7.10;;;18.30;99.90;;;;;;5034043;28;20034;-51
2022/07/15 05:53:59;;;;;;;10.98;8.30;;;18.20;99.90;;;;;;5034606;28;20535;-52
2022/07/15 05:56:25;;;;;;;10.48;6.07;;;18.20;99.90;;;;;;5034823;28;20029;-61
2022/07/15 05:58:57;;;;;;;10.85;7.38;;;18.30;99.90;;;;;;5034285;28;20025;-53
2022/07/15 06:01:23;;;;;;;9.30;7.03;;;18.10;99.90;;;;;;5034279;28;20030;-52
2022/07/15 06:03:49;;;;;;;10.07;7.30;;;18.10;99.90;;;;;;5033827;28;20468;-54
2022/07/15 06:06:14;;;;;;;10.18;6.90;;;18.20;99.90;;;;;;5033695;28;20029;-56
2022/07/15 06:08:40;;;;;;;9.95;6.82;;;18.20;99.90;;;;;;5034619;28;20026;-55
2022/07/15 06:11:08;;;;;;;10.25;7.47;;;18.40;99.90;;;;;;5033673;28;20029;-59
2022/07/15 06:13:33;;;;;;;9.75;6.38;;;18.50;99.90;;;;;;5034672;28;20362;-54
2022/07/15 06:15:59;;;;;;;14.38;7.57;;;18.60;99.90;;;;;;5033324;28;20076;-56
2022/07/15 06:18:25;;;;;;;10.35;7.38;;;18.60;99.90;;;;;;5034400;28;20037;-55
2022/07/15 06:20:51;;;;;;;13.57;7.70;;;18.60;99.90;;;;;;5033780;28;20338;-55
2022/07/15 06:23:17;;;;;;;9.35;8.20;;;18.60;99.90;;;;;;5033823;28;20029;-57
2022/07/15 06:25:43;;;;;;;17.52;7.97;;;18.60;99.90;;;;;;5034244;28;20021;-58
2022/07/15 06:28:08;;;;;;;9.48;7.22;;;18.80;99.90;;;;;;5033973;28;20021;-55
2022/07/15 06:30:34;;;;;;;11.95;7.38;;;19.00;99.90;;;;;;5033402;28;20032;-50
2022/07/15 06:33:00;;;;;;;7.68;6.47;;;19.00;99.90;;;;;;5033562;28;20036;-56
2022/07/15 06:35:25;;;;;;;8.23;6.35;;;19.20;99.90;;;;;;5033608;28;20064;-52
2022/07/15 06:37:52;;;;;;;11.75;5.97;;;19.10;99.90;;;;;;5033213;28;20098;-53
2022/07/15 06:40:18;;;;;;;12.98;6.90;;;19.30;99.90;;;;;;5033488;28;20034;-55
2022/07/15 06:42:44;;;;;;;9.80;7.18;;;19.50;99.90;;;;;;5033517;28;20480;-56
2022/07/15 06:45:10;;;;;;;8.27;6.38;;;19.60;99.90;;;;;;5033137;28;20079;-58
2022/07/15 06:47:39;;;;;;;10.27;6.38;;;19.90;99.90;;;;;;5032576;28;20040;-58
2022/07/15 06:50:05;;;;;;;12.02;7.28;;;20.10;99.90;;;;;;5033622;28;20045;-56
2022/07/15 06:52:31;;;;;;;11.45;6.60;;;20.20;99.90;;;;;;5033599;28;20537;-56
2022/07/15 06:54:57;;;;;;;8.55;6.32;;;20.20;99.90;;;;;;5033032;28;20101;-54
2022/07/15 06:57:22;;;;;;;8.52;6.40;;;20.20;99.90;;;;;;5033089;28;20473;-56
2022/07/15 06:59:48;;;;;;;8.50;6.18;;;20.20;99.90;;;;;;5032984;28;20033;-59
2022/07/15 07:02:14;;;;;;;8.23;6.32;;;20.20;99.90;;;;;;5033217;28;20033;-56
2022/07/15 07:04:42;;;;;;;10.77;5.85;;;19.70;99.90;;;;;;5032879;28;20056;-55
2022/07/15 07:07:07;;;;;;;11.57;6.80;;;19.80;99.90;;;;;;5033445;28;20026;-55
2022/07/15 07:09:33;;;;;;;9.25;6.93;;;20.10;99.90;;;;;;5032692;28;20029;-57
2022/07/15 07:11:59;;;;;;;10.80;7.88;;;20.30;99.90;;;;;;5032855;28;20021;-57
2022/07/15 07:14:24;;;;;;;8.77;6.38;;;20.30;99.90;;;;;;5032806;28;20148;-53
2022/07/15 07:16:50;;;;;;;7.45;6.75;;;20.20;99.90;;;;;;5032720;28;20500;-56
2022/07/15 07:19:16;;;;;;;9.48;6.32;;;20.40;99.90;;;;;;5033121;28;20025;-53
2022/07/15 07:21:41;;;;;;;6.75;6.00;;;20.60;99.90;;;;;;5032683;28;20025;-56
2022/07/15 07:24:07;;;;;;;8.48;5.97;;;20.60;99.90;;;;;;5032333;28;20087;-56
2022/07/15 07:26:34;;;;;;;10.57;6.05;;;20.80;99.90;;;;;;5032020;28;20029;-57
2022/07/15 07:28:59;;;;;;;34.13;18.00;;;21.30;99.90;;;;;;5033113;28;20029;-55
2022/07/15 07:31:26;;;;;;;9.50;6.13;;;21.30;99.90;;;;;;5032296;28;20384;-56
2022/07/15 07:33:57;;;;;;;11.13;6.97;;;21.30;99.90;;;;;;5031971;28;20049;-57
2022/07/15 07:36:23;;;;;;;12.88;5.40;;;21.70;99.90;;;;;;5033347;28;20020;-57
2022/07/15 07:38:49;;;;;;;8.13;5.72;;;21.40;99.90;;;;;;5033516;28;20373;-57
2022/07/15 07:41:15;;;;;;;10.13;5.95;;;21.80;99.90;;;;;;5033527;28;20096;-56
2022/07/15 07:43:40;;;;;;;12.93;8.60;;;21.90;99.90;;;;;;5033384;28;20029;-57
2022/07/15 07:46:06;;;;;;;10.25;6.65;;;21.70;99.90;;;;;;5031868;28;20113;-56
2022/07/15 07:48:32;;;;;;;10.25;5.72;;;21.60;99.90;;;;;;5032395;28;20540;-51
2022/07/15 07:50:58;;;;;;;8.80;6.47;;;21.30;99.90;;;;;;5030699;28;20057;-51
2022/07/15 07:53:23;;;;;;;9.52;5.50;;;20.90;99.90;;;;;;5032048;28;20488;-52
2022/07/15 07:55:50;;;;;;;11.23;5.80;;;20.80;99.90;;;;;;5030658;28;20037;-52
2022/07/15 07:58:17;;;;;;;6.57;5.70;;;20.60;99.90;;;;;;5031935;28;20205;-51
2022/07/15 08:00:44;;;;;;;11.98;6.78;;;20.90;99.90;;;;;;5031834;28;20025;-50
2022/07/15 08:03:10;;;;;;;13.05;7.05;;;21.00;99.90;;;;;;5032201;28;20070;-52
2022/07/15 08:05:36;;;;;;;14.70;6.38;;;21.20;99.90;;;;;;5032348;28;20055;-52
2022/07/15 08:08:13;;;;;;;9.13;6.70;;;21.30;99.90;;;;;;5032345;28;20423;-54
2022/07/15 08:10:40;;;;;;;9.95;6.82;;;21.30;99.90;;;;;;5031937;28;20530;-54
2022/07/15 08:13:06;;;;;;;9.68;7.18;;;21.50;99.90;;;;;;5031919;28;20076;-50
2022/07/15 08:15:32;;;;;;;8.93;7.30;;;21.90;99.90;;;;;;5032112;28;20052;-50
2022/07/15 08:17:58;;;;;;;14.63;7.18;;;22.20;99.90;;;;;;5031816;28;20028;-54
2022/07/15 08:20:24;;;;;;;13.07;6.85;;;22.10;99.90;;;;;;5031532;28;20025;-54
2022/07/15 08:22:57;;;;;;;12.23;7.53;;;22.10;99.90;;;;;;5031807;28;20071;-52
2022/07/15 08:25:33;;;;;;;11.25;7.65;;;21.90;99.90;;;;;;5030640;28;20033;-53
2022/07/15 08:27:59;;;;;;;15.45;7.68;;;21.80;99.90;;;;;;5031503;28;20040;-51
2022/07/15 08:30:29;;;;;;;12.50;7.70;;;21.90;99.90;;;;;;5031748;28;20020;-53
2022/07/15 08:32:56;;;;;;;16.02;7.85;;;22.20;99.90;;;;;;5031262;28;20400;-52
2022/07/15 08:35:22;;;;;;;13.73;8.13;;;22.60;99.60;;;;;;5031119;28;20018;-54
2022/07/15 08:37:48;;;;;;;11.55;6.38;;;22.70;99.50;;;;;;5030975;28;20052;-57
2022/07/15 08:40:15;;;;;;;10.15;7.95;;;22.80;99.00;;;;;;5026667;28;20385;-55
2022/07/15 08:42:43;;;;;;;11.63;8.60;;;22.90;98.30;;;;;;5011521;28;20054;-57
2022/07/15 08:45:10;;;;;;;10.23;7.55;;;22.80;99.10;;;;;;5011808;28;20504;-53
2022/07/15 08:47:38;;;;;;;10.27;6.78;;;22.00;99.70;;;;;;5011696;28;20026;-55
2022/07/15 08:50:05;;;;;;;16.13;7.53;;;21.80;99.90;;;;;;5017631;28;20068;-53
2022/07/15 08:52:33;;;;;;;11.13;7.47;;;22.10;99.90;;;;;;5031037;28;20033;-55
2022/07/15 08:54:59;;;;;;;12.63;8.82;;;22.50;99.60;;;;;;5031227;28;20052;-54
2022/07/15 08:57:25;;;;;;;9.98;6.38;;;22.60;98.90;;;;;;5031313;28;20110;-50
2022/07/15 08:59:52;;;;;;;9.15;5.88;;;23.40;98.90;;;;;;5031108;28;20462;-54
2022/07/15 09:02:21;;;;;;;13.43;6.47;;;23.80;99.40;;;;;;5031361;28;20037;-55
2022/07/15 09:05:21;;;;;;;8.57;5.88;;;23.30;97.30;;;;;;5031243;28;20041;-52
2022/07/15 09:08:04;;;;;;;7.45;4.82;;;23.10;96.10;;;;;;5030792;28;20022;-54
2022/07/15 09:10:45;;;;;;;6.65;5.15;;;22.60;95.80;;;;;;5029701;28;20044;-58
2022/07/15 09:13:33;;;;;;;7.35;5.50;;;23.10;96.70;;;;;;5030947;28;20500;-54
2022/07/15 09:16:10;;;;;;;9.63;5.88;;;23.60;95.00;;;;;;5030689;28;20072;-55
2022/07/15 09:18:39;;;;;;;6.63;4.75;;;23.70;94.90;;;;;;5030807;28;20092;-55
2022/07/15 09:21:25;;;;;;;12.40;6.60;;;24.30;95.20;;;;;;5030931;28;20060;-51
2022/07/15 09:23:53;;;;;;;10.40;6.22;;;23.60;95.50;;;;;;5030839;28;20404;-54
2022/07/15 09:26:29;;;;;;;9.23;5.65;;;23.30;95.60;;;;;;5031056;28;20037;-54
2022/07/15 09:28:56;;;;;;;13.60;6.57;;;23.40;96.20;;;;;;5030921;28;20052;-56
2022/07/15 09:34:15;;;;;;;8.27;6.07;;;23.30;96.20;;;;;;5030882;28;20604;-54
2022/07/15 09:36:46;;;;;;;8.63;5.72;;;23.60;96.60;;;;;;5030738;28;20096;-57
2022/07/15 09:39:12;;;;;;;8.70;5.80;;;23.80;96.70;;;;;;5030614;28;20034;-55
2022/07/15 09:41:43;;;;;;;14.73;6.55;;;24.10;95.70;;;;;;5019331;28;20041;-54
2022/07/15 09:44:16;;;;;;;12.93;5.45;;;24.40;97.00;;;;;;5011039;28;20152;-52
2022/07/15 09:47:03;;;;;;;9.30;5.20;;;24.80;94.40;;;;;;5010547;28;20057;-56
2022/07/15 09:49:37;;;;;;;12.32;5.43;;;24.70;93.70;;;;;;5020551;28;20061;-56
2022/07/15 09:52:08;;;;;;;10.18;5.75;;;24.60;94.70;;;;;;5034512;28;20030;-55
2022/07/15 09:54:38;;;;;;;7.60;5.18;;;24.00;93.70;;;;;;5034073;28;20029;-56
2022/07/15 09:57:07;;;;;;;12.13;5.55;;;24.40;94.90;;;;;;5034132;28;20037;-56
2022/07/15 09:59:33;;;;;;;8.98;5.72;;;25.10;94.90;;;;;;5033934;28;20100;-54
2022/07/15 10:01:59;;;;;;;8.45;5.20;;;25.40;93.10;;;;;;5034605;28;20510;-53
2022/07/15 10:04:27;;;;;;;9.00;5.57;;;25.40;93.30;;;;;;5033940;28;20049;-52
2022/07/15 10:06:55;;;;;;;8.00;5.00;;;26.10;92.50;;;;;;5034476;28;20028;-52
2022/07/15 10:09:29;;;;;;;12.85;5.28;;;26.00;92.00;;;;;;5034050;28;20021;-58
2022/07/15 10:12:00;;;;;;;11.73;6.22;;;24.80;92.30;;;;;;5033803;28;20029;-55
2022/07/15 10:14:26;;;;;;;11.23;5.70;;;23.80;94.10;;;;;;5034101;28;20026;-49
2022/07/15 10:17:20;;;;;;;7.85;5.25;;;23.60;95.10;;;;;;5033498;28;20029;-52
2022/07/15 10:20:08;;;;;;;11.80;4.55;;;24.10;94.80;;;;;;5013901;28;20037;-55
2022/07/15 10:22:49;;;;;;;8.93;5.55;;;24.50;93.90;;;;;;5016679;28;20033;-58
2022/07/15 10:25:20;;;;;;;13.43;5.28;;;24.40;91.60;;;;;;5022513;28;20037;-56
2022/07/15 10:28:15;;;;;;;8.90;5.10;;;24.60;92.70;;;;;;5022355;28;20377;-54
2022/07/15 10:30:43;;;;;;;13.70;5.47;;;24.70;93.00;;;;;;5022761;28;20720;-57
2022/07/15 10:33:18;;;;;;;9.77;5.47;;;24.10;93.00;;;;;;5022938;28;20080;-59
2022/07/15 10:35:48;;;;;;;10.63;5.20;;;23.70;93.10;;;;;;5022920;28;20060;-55
2022/07/15 10:38:25;;;;;;;5.82;5.20;;;23.90;94.00;;;;;;5022815;28;20641;-56
2022/07/15 10:47:39;;;;;;;17.20;5.63;;;25.20;92.40;;;;;;5004201;28;20199;-54
2022/07/15 10:50:37;;;;;;;7.43;5.15;;;25.20;93.20;;;;;;5020371;28;20117;-55
2022/07/15 10:53:18;;;;;;;7.90;5.03;;;25.60;90.80;;;;;;5022055;28;20029;-55
2022/07/15 10:55:44;;;;;;;7.80;4.63;;;25.30;91.20;;;;;;5022290;28;20131;-57
2022/07/15 10:58:12;;;;;;;12.00;4.43;;;25.20;91.20;;;;;;5021138;28;20537;-55
2022/07/15 11:01:18;;;;;;;13.15;5.10;;;25.60;91.50;;;;;;5022270;28;20088;-57
2022/07/15 11:04:19;;;;;;;6.90;4.80;;;25.20;92.00;;;;;;5021779;28;20033;-54
2022/07/15 11:07:03;;;;;;;7.32;4.97;;;25.20;92.70;;;;;;5021542;28;20453;-55
2022/07/15 11:10:02;;;;;;;8.50;4.35;;;24.90;92.20;;;;;;5022522;28;21497;-57
2022/07/15 11:12:30;;;;;;;7.05;4.93;;;25.20;91.50;;;;;;5022400;28;20033;-55
2022/07/15 11:14:57;;;;;;;7.97;4.43;;;25.40;91.00;;;;;;5022752;28;22575;-55
2022/07/15 11:17:29;;;;;;;10.05;4.97;;;26.10;91.20;;;;;;5022323;28;20469;-50
2022/07/15 11:19:58;;;;;;;11.85;5.25;;;26.40;89.70;;;;;;5021397;28;20045;-55
2022/07/15 11:22:27;;;;;;;7.70;4.45;;;26.60;86.50;;;;;;5021886;28;20030;-54
2022/07/15 11:24:53;;;;;;;7.95;4.40;;;27.00;88.40;;;;;;5021887;28;20030;-52
2022/07/15 11:27:24;;;;;;;8.93;5.47;;;26.60;85.30;;;;;;5021072;28;20038;-55
2022/07/15 11:29:58;;;;;;;10.82;4.88;;;26.00;89.60;;;;;;5022164;28;20038;-55
2022/07/15 11:32:26;;;;;;;13.77;6.63;;;25.90;88.60;;;;;;5021881;28;20040;-52
2022/07/15 11:34:54;;;;;;;9.63;4.60;;;25.10;88.40;;;;;;5021765;28;20029;-54
2022/07/15 11:37:33;;;;;;;13.32;3.90;;;24.20;89.00;;;;;;5021236;28;20108;-55
2022/07/15 11:45:46;;;;;;;17.60;5.07;;;25.70;88.60;;;;;;5020326;28;20091;-54
2022/07/15 11:48:12;;;;;;;6.45;4.50;;;26.30;86.70;;;;;;5021657;28;20029;-56
2022/07/15 11:50:53;;;;;;;10.60;4.57;;;26.80;85.20;;;;;;5021596;28;20059;-52
2022/07/15 11:53:18;;;;;;;10.55;4.47;;;26.60;83.30;;;;;;5021583;28;20025;-58
2022/07/15 11:55:48;;;;;;;6.22;4.05;;;26.30;85.10;;;;;;5020411;28;20025;-55
2022/07/15 11:58:14;;;;;;;9.65;4.28;;;26.90;83.90;;;;;;5021522;28;20029;-57
2022/07/15 12:00:46;;;;;;;4.28;3.35;;;27.00;84.20;;;;;;5021217;28;20033;-56
2022/07/15 12:03:11;;;;;;;7.45;3.80;;;27.20;83.20;;;;;;5021297;28;20025;-55
2022/07/15 12:05:37;;;;;;;8.18;4.00;;;26.50;80.30;;;;;;5036796;28;20055;-55
2022/07/15 12:08:04;;;;;;;6.53;3.53;;;26.00;80.30;;;;;;5020789;28;20030;-56
2022/07/15 12:10:34;;;;;;;6.95;3.65;;;26.20;80.10;;;;;;5020737;28;20057;-52
2022/07/15 12:13:01;;;;;;;5.80;2.95;;;26.90;80.30;;;;;;5020391;28;20444;-56
2022/07/15 12:15:29;;;;;;;8.70;3.60;;;27.50;80.00;;;;;;5022668;28;20548;-57
2022/07/15 12:17:55;;;;;;;7.20;3.55;;;28.40;76.10;;;;;;5022916;28;20069;-55
2022/07/15 12:20:22;;;;;;;4.10;2.92;;;28.70;74.90;;;;;;5020114;28;20079;-56
2022/07/15 12:23:08;;;;;;;9.32;3.17;;;29.70;74.90;;;;;;5021110;28;20037;-54
2022/07/15 12:25:34;;;;;;;8.48;4.35;;;30.10;67.70;;;;;;5020803;28;21166;-51
2022/07/15 12:28:00;;;;;;;10.25;3.72;;;29.50;65.40;;;;;;5021201;28;20025;-58
2022/07/15 12:30:37;;;;;;;14.65;4.03;;;29.10;67.90;;;;;;5020715;28;20061;-54
2022/07/15 12:33:22;;;;;;;8.82;3.28;;;28.00;67.60;;;;;;5021207;28;20029;-54
2022/07/15 12:35:49;;;;;;;10.45;3.30;;;27.60;70.30;;;;;;5020275;28;20044;-56
2022/07/15 12:38:31;;;;;;;6.18;3.33;;;27.70;70.30;;;;;;5020886;28;20385;-50
2022/07/15 12:41:08;;;;;;;10.57;3.65;;;28.60;70.10;;;;;;5030271;28;20088;-58
2022/07/15 12:43:52;;;;;;;7.47;3.30;;;29.90;65.10;;;;;;5031194;28;20384;-57
2022/07/15 12:46:19;;;;;;;6.05;3.92;;;30.60;64.40;;;;;;5031394;28;20032;-56
2022/07/15 12:48:49;;;;;;;6.65;2.95;;;31.40;60.80;;;;;;5030636;28;20046;-54
2022/07/15 12:51:16;;;;;;;5.68;2.45;;;31.00;64.20;;;;;;5031326;28;20036;-54
2022/07/15 12:53:42;;;;;;;5.75;2.70;;;30.70;60.80;;;;;;5031911;28;20037;-55
2022/07/15 12:56:08;;;;;;;4.47;2.72;;;30.70;64.80;;;;;;5031337;28;20018;-53
2022/07/15 12:58:35;;;;;;;9.15;3.33;;;31.70;58.70;;;;;;5031134;28;20026;-56
2022/07/15 13:01:13;;;;;;;18.42;3.08;;;32.10;57.70;;;;;;5031243;28;20116;-52
2022/07/15 13:03:39;;;;;;;6.47;2.80;;;33.00;59.90;;;;;;5031339;28;20026;-58
2022/07/15 13:06:06;;;;;;;9.40;2.60;;;34.70;57.80;;;;;;5031479;28;20025;-55
2022/07/15 13:08:38;;;;;;;6.30;2.50;;;34.40;51.40;;;;;;5031340;28;20053;-53
2022/07/15 13:11:06;;;;;;;7.25;2.45;;;34.20;49.60;;;;;;5031065;28;20079;-58